sensor_id;sensor_type;location;lat;lon;timestamp;P1;durP1;ratioP1;P2;durP2;ratioP2
17330;SDS011;8783;52.448;4.638;2023-10-31T00:02:08;5.53;;;2.58;;
17330;SDS011;8783;52.448;4.638;2023-10-31T00:04:34;7.30;;;2.80;;
17330;SDS011;8783;52.448;4.638;2023-10-31T00:07:00;5.03;;;2.40;;
17330;SDS011;8783;52.448;4.638;2023-10-31T00:09:26;6.25;;;2.50;;
17330;SDS011;8783;52.448;4.638;2023-10-31T00:11:51;4.35;;;2.42;;
17330;SDS011;8783;52.448;4.638;2023-10-31T00:14:17;4.50;;;2.10;;
17330;SDS011;8783;52.448;4.638;2023-10-31T00:16:42;5.65;;;2.40;;
17330;SDS011;8783;52.448;4.638;2023-10-31T00:19:08;6.25;;;2.63;;
17330;SDS011;8783;52.448;4.638;2023-10-31T00:21:33;6.07;;;2.10;;
17330;SDS011;8783;52.448;4.638;2023-10-31T00:23:59;6.32;;;2.58;;
17330;SDS011;8783;52.448;4.638;2023-10-31T00:26:24;5.45;;;2.20;;
17330;SDS011;8783;52.448;4.638;2023-10-31T00:28:50;6.35;;;2.30;;
17330;SDS011;8783;52.448;4.638;2023-10-31T00:31:16;5.75;;;2.40;;
17330;SDS011;8783;52.448;4.638;2023-10-31T00:33:42;5.40;;;2.20;;
17330;SDS011;8783;52.448;4.638;2023-10-31T00:36:08;5.32;;;2.05;;
17330;SDS011;8783;52.448;4.638;2023-10-31T00:38:34;5.63;;;2.28;;
17330;SDS011;8783;52.448;4.638;2023-10-31T00:40:59;5.88;;;2.28;;
17330;SDS011;8783;52.448;4.638;2023-10-31T00:43:25;5.93;;;2.22;;
17330;SDS011;8783;52.448;4.638;2023-10-31T00:45:50;5.07;;;2.03;;
17330;SDS011;8783;52.448;4.638;2023-10-31T00:48:16;4.95;;;2.08;;
17330;SDS011;8783;52.448;4.638;2023-10-31T00:50:42;4.82;;;2.20;;
17330;SDS011;8783;52.448;4.638;2023-10-31T00:53:08;6.90;;;2.05;;
17330;SDS011;8783;52.448;4.638;2023-10-31T00:55:34;4.00;;;2.10;;
17330;SDS011;8783;52.448;4.638;2023-10-31T00:57:59;4.57;;;2.20;;
17330;SDS011;8783;52.448;4.638;2023-10-31T01:00:25;5.53;;;2.10;;
17330;SDS011;8783;52.448;4.638;2023-10-31T01:02:51;4.13;;;1.85;;
17330;SDS011;8783;52.448;4.638;2023-10-31T01:05:16;4.80;;;2.25;;
17330;SDS011;8783;52.448;4.638;2023-10-31T01:07:42;5.13;;;2.17;;
17330;SDS011;8783;52.448;4.638;2023-10-31T01:10:08;3.47;;;1.88;;
17330;SDS011;8783;52.448;4.638;2023-10-31T01:12:33;5.00;;;2.30;;
17330;SDS011;8783;52.448;4.638;2023-10-31T01:14:59;5.32;;;2.17;;
17330;SDS011;8783;52.448;4.638;2023-10-31T01:17:25;5.22;;;1.77;;
17330;SDS011;8783;52.448;4.638;2023-10-31T01:19:50;3.67;;;2.17;;
17330;SDS011;8783;52.448;4.638;2023-10-31T01:22:16;3.53;;;1.38;;
17330;SDS011;8783;52.448;4.638;2023-10-31T01:24:41;6.03;;;2.03;;
17330;SDS011;8783;52.448;4.638;2023-10-31T01:27:07;5.03;;;1.70;;
17330;SDS011;8783;52.448;4.638;2023-10-31T01:29:33;4.28;;;1.85;;
17330;SDS011;8783;52.448;4.638;2023-10-31T01:31:58;6.00;;;1.80;;
17330;SDS011;8783;52.448;4.638;2023-10-31T01:34:24;4.47;;;1.88;;
17330;SDS011;8783;52.448;4.638;2023-10-31T01:36:50;2.60;;;1.63;;
17330;SDS011;8783;52.448;4.638;2023-10-31T01:39:15;3.60;;;1.55;;
17330;SDS011;8783;52.448;4.638;2023-10-31T01:41:41;4.38;;;1.60;;
17330;SDS011;8783;52.448;4.638;2023-10-31T01:44:08;4.28;;;1.88;;
17330;SDS011;8783;52.448;4.638;2023-10-31T01:46:34;3.83;;;1.52;;
17330;SDS011;8783;52.448;4.638;2023-10-31T01:48:59;6.55;;;1.92;;
17330;SDS011;8783;52.448;4.638;2023-10-31T01:51:25;3.90;;;1.73;;
17330;SDS011;8783;52.448;4.638;2023-10-31T01:53:52;3.00;;;1.50;;
17330;SDS011;8783;52.448;4.638;2023-10-31T01:56:17;4.60;;;1.90;;
17330;SDS011;8783;52.448;4.638;2023-10-31T01:58:45;3.38;;;1.70;;
17330;SDS011;8783;52.448;4.638;2023-10-31T02:01:12;4.07;;;1.83;;
17330;SDS011;8783;52.448;4.638;2023-10-31T02:03:38;3.45;;;1.85;;
17330;SDS011;8783;52.448;4.638;2023-10-31T02:06:03;4.00;;;1.60;;
17330;SDS011;8783;52.448;4.638;2023-10-31T02:08:29;2.40;;;1.40;;
17330;SDS011;8783;52.448;4.638;2023-10-31T02:10:55;2.97;;;1.52;;
17330;SDS011;8783;52.448;4.638;2023-10-31T02:13:21;4.30;;;1.58;;
17330;SDS011;8783;52.448;4.638;2023-10-31T02:15:47;3.85;;;1.40;;
17330;SDS011;8783;52.448;4.638;2023-10-31T02:18:13;5.07;;;1.40;;
17330;SDS011;8783;52.448;4.638;2023-10-31T02:20:39;3.72;;;1.33;;
17330;SDS011;8783;52.448;4.638;2023-10-31T02:23:05;4.68;;;1.25;;
17330;SDS011;8783;52.448;4.638;2023-10-31T02:25:31;3.60;;;1.48;;
17330;SDS011;8783;52.448;4.638;2023-10-31T02:27:57;2.05;;;1.08;;
17330;SDS011;8783;52.448;4.638;2023-10-31T02:30:23;4.13;;;1.58;;
17330;SDS011;8783;52.448;4.638;2023-10-31T02:32:49;3.70;;;1.42;;
17330;SDS011;8783;52.448;4.638;2023-10-31T02:35:18;3.42;;;1.58;;
17330;SDS011;8783;52.448;4.638;2023-10-31T02:37:45;2.67;;;1.15;;
17330;SDS011;8783;52.448;4.638;2023-10-31T02:40:11;1.98;;;1.23;;
17330;SDS011;8783;52.448;4.638;2023-10-31T02:42:37;3.47;;;1.42;;
17330;SDS011;8783;52.448;4.638;2023-10-31T02:45:03;1.95;;;1.08;;
17330;SDS011;8783;52.448;4.638;2023-10-31T02:47:29;2.97;;;1.40;;
17330;SDS011;8783;52.448;4.638;2023-10-31T02:49:55;2.80;;;1.33;;
17330;SDS011;8783;52.448;4.638;2023-10-31T02:52:20;1.95;;;1.02;;
17330;SDS011;8783;52.448;4.638;2023-10-31T02:54:46;3.63;;;1.38;;
17330;SDS011;8783;52.448;4.638;2023-10-31T02:57:12;2.88;;;1.33;;
17330;SDS011;8783;52.448;4.638;2023-10-31T02:59:37;3.35;;;1.20;;
17330;SDS011;8783;52.448;4.638;2023-10-31T03:02:03;3.75;;;1.20;;
17330;SDS011;8783;52.448;4.638;2023-10-31T03:04:28;3.03;;;1.33;;
17330;SDS011;8783;52.448;4.638;2023-10-31T03:06:54;3.15;;;1.30;;
17330;SDS011;8783;52.448;4.638;2023-10-31T03:09:19;2.83;;;0.95;;
17330;SDS011;8783;52.448;4.638;2023-10-31T03:11:45;2.65;;;1.10;;
17330;SDS011;8783;52.448;4.638;2023-10-31T03:14:11;1.60;;;1.00;;
17330;SDS011;8783;52.448;4.638;2023-10-31T03:16:36;2.28;;;0.93;;
17330;SDS011;8783;52.448;4.638;2023-10-31T03:19:02;2.05;;;1.05;;
17330;SDS011;8783;52.448;4.638;2023-10-31T03:21:27;1.95;;;1.00;;
17330;SDS011;8783;52.448;4.638;2023-10-31T03:23:53;1.70;;;0.90;;
17330;SDS011;8783;52.448;4.638;2023-10-31T03:26:20;1.90;;;0.90;;
17330;SDS011;8783;52.448;4.638;2023-10-31T03:28:47;2.08;;;1.20;;
17330;SDS011;8783;52.448;4.638;2023-10-31T03:31:12;2.47;;;0.98;;
17330;SDS011;8783;52.448;4.638;2023-10-31T03:33:39;2.22;;;1.00;;
17330;SDS011;8783;52.448;4.638;2023-10-31T03:36:05;2.80;;;1.13;;
17330;SDS011;8783;52.448;4.638;2023-10-31T03:38:31;1.92;;;1.00;;
17330;SDS011;8783;52.448;4.638;2023-10-31T03:40:57;3.15;;;0.95;;
17330;SDS011;8783;52.448;4.638;2023-10-31T03:43:22;3.05;;;1.02;;
17330;SDS011;8783;52.448;4.638;2023-10-31T03:45:48;2.08;;;0.80;;
17330;SDS011;8783;52.448;4.638;2023-10-31T03:48:15;2.08;;;1.00;;
17330;SDS011;8783;52.448;4.638;2023-10-31T03:50:41;2.55;;;1.00;;
17330;SDS011;8783;52.448;4.638;2023-10-31T03:53:06;1.92;;;0.80;;
17330;SDS011;8783;52.448;4.638;2023-10-31T03:55:32;3.20;;;1.20;;
17330;SDS011;8783;52.448;4.638;2023-10-31T03:57:57;1.52;;;0.75;;
17330;SDS011;8783;52.448;4.638;2023-10-31T04:00:23;2.70;;;1.20;;
17330;SDS011;8783;52.448;4.638;2023-10-31T04:02:49;2.08;;;0.98;;
17330;SDS011;8783;52.448;4.638;2023-10-31T04:05:14;2.40;;;1.05;;
17330;SDS011;8783;52.448;4.638;2023-10-31T04:07:40;1.60;;;0.93;;
17330;SDS011;8783;52.448;4.638;2023-10-31T04:10:06;1.30;;;0.90;;
17330;SDS011;8783;52.448;4.638;2023-10-31T04:12:32;1.88;;;0.90;;
17330;SDS011;8783;52.448;4.638;2023-10-31T04:14:58;1.83;;;1.10;;
17330;SDS011;8783;52.448;4.638;2023-10-31T04:17:24;1.80;;;0.98;;
17330;SDS011;8783;52.448;4.638;2023-10-31T04:19:50;2.85;;;1.10;;
17330;SDS011;8783;52.448;4.638;2023-10-31T04:22:15;2.60;;;0.70;;
17330;SDS011;8783;52.448;4.638;2023-10-31T04:24:41;1.42;;;0.80;;
17330;SDS011;8783;52.448;4.638;2023-10-31T04:27:07;3.35;;;0.93;;
17330;SDS011;8783;52.448;4.638;2023-10-31T04:29:32;0.95;;;0.63;;
17330;SDS011;8783;52.448;4.638;2023-10-31T04:31:58;3.33;;;0.82;;
17330;SDS011;8783;52.448;4.638;2023-10-31T04:34:24;2.60;;;1.10;;
17330;SDS011;8783;52.448;4.638;2023-10-31T04:36:49;2.13;;;0.70;;
17330;SDS011;8783;52.448;4.638;2023-10-31T04:39:15;2.10;;;0.70;;
17330;SDS011;8783;52.448;4.638;2023-10-31T04:41:41;3.35;;;0.80;;
17330;SDS011;8783;52.448;4.638;2023-10-31T04:44:06;4.93;;;0.90;;
17330;SDS011;8783;52.448;4.638;2023-10-31T04:46:32;2.25;;;0.88;;
17330;SDS011;8783;52.448;4.638;2023-10-31T04:48:58;2.30;;;0.98;;
17330;SDS011;8783;52.448;4.638;2023-10-31T04:51:24;1.70;;;0.70;;
17330;SDS011;8783;52.448;4.638;2023-10-31T04:53:49;2.58;;;0.85;;
17330;SDS011;8783;52.448;4.638;2023-10-31T04:56:15;1.05;;;0.60;;
17330;SDS011;8783;52.448;4.638;2023-10-31T04:58:42;1.48;;;0.65;;
17330;SDS011;8783;52.448;4.638;2023-10-31T05:01:11;3.78;;;0.70;;
17330;SDS011;8783;52.448;4.638;2023-10-31T05:03:37;1.10;;;0.68;;
17330;SDS011;8783;52.448;4.638;2023-10-31T05:06:04;0.93;;;0.40;;
17330;SDS011;8783;52.448;4.638;2023-10-31T05:08:30;2.13;;;0.80;;
17330;SDS011;8783;52.448;4.638;2023-10-31T05:10:56;1.58;;;0.82;;
17330;SDS011;8783;52.448;4.638;2023-10-31T05:13:22;1.75;;;0.85;;
17330;SDS011;8783;52.448;4.638;2023-10-31T05:15:48;2.00;;;0.77;;
17330;SDS011;8783;52.448;4.638;2023-10-31T05:18:13;2.17;;;0.90;;
17330;SDS011;8783;52.448;4.638;2023-10-31T05:20:39;1.73;;;0.50;;
17330;SDS011;8783;52.448;4.638;2023-10-31T05:23:04;1.88;;;0.68;;
17330;SDS011;8783;52.448;4.638;2023-10-31T05:25:30;1.38;;;0.80;;
17330;SDS011;8783;52.448;4.638;2023-10-31T05:27:56;2.28;;;0.75;;
17330;SDS011;8783;52.448;4.638;2023-10-31T05:30:22;1.63;;;0.60;;
17330;SDS011;8783;52.448;4.638;2023-10-31T05:32:49;2.72;;;0.95;;
17330;SDS011;8783;52.448;4.638;2023-10-31T05:35:14;1.02;;;0.60;;
17330;SDS011;8783;52.448;4.638;2023-10-31T05:37:40;2.40;;;0.80;;
17330;SDS011;8783;52.448;4.638;2023-10-31T05:40:06;1.52;;;0.50;;
17330;SDS011;8783;52.448;4.638;2023-10-31T05:42:32;1.92;;;0.60;;
17330;SDS011;8783;52.448;4.638;2023-10-31T05:44:57;1.50;;;0.65;;
17330;SDS011;8783;52.448;4.638;2023-10-31T05:47:27;1.52;;;0.93;;
17330;SDS011;8783;52.448;4.638;2023-10-31T05:49:53;1.25;;;0.70;;
17330;SDS011;8783;52.448;4.638;2023-10-31T05:52:19;3.13;;;0.60;;
17330;SDS011;8783;52.448;4.638;2023-10-31T05:54:44;1.25;;;0.60;;
17330;SDS011;8783;52.448;4.638;2023-10-31T05:57:10;1.40;;;0.70;;
17330;SDS011;8783;52.448;4.638;2023-10-31T05:59:36;2.67;;;0.68;;
17330;SDS011;8783;52.448;4.638;2023-10-31T06:02:02;1.80;;;0.75;;
17330;SDS011;8783;52.448;4.638;2023-10-31T06:04:28;2.33;;;0.63;;
17330;SDS011;8783;52.448;4.638;2023-10-31T06:06:53;1.52;;;0.63;;
17330;SDS011;8783;52.448;4.638;2023-10-31T06:09:19;2.20;;;0.60;;
17330;SDS011;8783;52.448;4.638;2023-10-31T06:11:44;2.70;;;0.80;;
17330;SDS011;8783;52.448;4.638;2023-10-31T06:14:10;2.42;;;0.82;;
17330;SDS011;8783;52.448;4.638;2023-10-31T06:16:43;2.05;;;0.70;;
17330;SDS011;8783;52.448;4.638;2023-10-31T06:19:09;2.55;;;0.88;;
17330;SDS011;8783;52.448;4.638;2023-10-31T06:21:35;1.92;;;0.70;;
17330;SDS011;8783;52.448;4.638;2023-10-31T06:24:01;2.55;;;1.00;;
17330;SDS011;8783;52.448;4.638;2023-10-31T06:26:27;2.03;;;1.05;;
17330;SDS011;8783;52.448;4.638;2023-10-31T06:28:53;2.20;;;1.17;;
17330;SDS011;8783;52.448;4.638;2023-10-31T06:31:18;1.65;;;0.90;;
17330;SDS011;8783;52.448;4.638;2023-10-31T06:33:44;3.95;;;1.02;;
17330;SDS011;8783;52.448;4.638;2023-10-31T06:36:09;2.58;;;1.23;;
17330;SDS011;8783;52.448;4.638;2023-10-31T06:38:35;2.00;;;1.10;;
17330;SDS011;8783;52.448;4.638;2023-10-31T06:41:00;1.45;;;1.02;;
17330;SDS011;8783;52.448;4.638;2023-10-31T06:43:26;3.53;;;1.20;;
17330;SDS011;8783;52.448;4.638;2023-10-31T06:45:53;2.15;;;1.50;;
17330;SDS011;8783;52.448;4.638;2023-10-31T06:48:20;2.55;;;1.42;;
17330;SDS011;8783;52.448;4.638;2023-10-31T06:50:45;3.92;;;1.30;;
17330;SDS011;8783;52.448;4.638;2023-10-31T06:53:11;4.07;;;1.35;;
17330;SDS011;8783;52.448;4.638;2023-10-31T06:55:36;2.45;;;1.40;;
17330;SDS011;8783;52.448;4.638;2023-10-31T06:58:02;2.72;;;1.40;;
17330;SDS011;8783;52.448;4.638;2023-10-31T07:00:28;1.63;;;1.00;;
17330;SDS011;8783;52.448;4.638;2023-10-31T07:02:53;3.38;;;1.38;;
17330;SDS011;8783;52.448;4.638;2023-10-31T07:05:19;1.50;;;1.20;;
17330;SDS011;8783;52.448;4.638;2023-10-31T07:07:45;3.15;;;1.40;;
17330;SDS011;8783;52.448;4.638;2023-10-31T07:10:12;2.17;;;1.10;;
17330;SDS011;8783;52.448;4.638;2023-10-31T07:12:38;1.48;;;1.02;;
17330;SDS011;8783;52.448;4.638;2023-10-31T07:15:04;2.50;;;1.30;;
17330;SDS011;8783;52.448;4.638;2023-10-31T07:17:30;3.80;;;1.33;;
17330;SDS011;8783;52.448;4.638;2023-10-31T07:19:56;7.45;;;1.55;;
17330;SDS011;8783;52.448;4.638;2023-10-31T07:22:22;8.30;;;2.55;;
17330;SDS011;8783;52.448;4.638;2023-10-31T07:24:49;10.00;;;2.10;;
17330;SDS011;8783;52.448;4.638;2023-10-31T07:27:16;7.97;;;2.20;;
17330;SDS011;8783;52.448;4.638;2023-10-31T07:29:42;10.15;;;2.63;;
17330;SDS011;8783;52.448;4.638;2023-10-31T07:32:08;12.30;;;3.03;;
17330;SDS011;8783;52.448;4.638;2023-10-31T07:34:34;12.95;;;3.35;;
17330;SDS011;8783;52.448;4.638;2023-10-31T07:37:00;11.13;;;2.50;;
17330;SDS011;8783;52.448;4.638;2023-10-31T07:39:25;9.25;;;2.67;;
17330;SDS011;8783;52.448;4.638;2023-10-31T07:41:51;11.75;;;2.90;;
17330;SDS011;8783;52.448;4.638;2023-10-31T07:44:17;8.75;;;2.78;;
17330;SDS011;8783;52.448;4.638;2023-10-31T07:46:42;8.23;;;2.38;;
17330;SDS011;8783;52.448;4.638;2023-10-31T07:49:08;9.05;;;2.40;;
17330;SDS011;8783;52.448;4.638;2023-10-31T07:51:34;7.65;;;2.45;;
17330;SDS011;8783;52.448;4.638;2023-10-31T07:53:59;10.43;;;2.60;;
17330;SDS011;8783;52.448;4.638;2023-10-31T07:56:28;9.90;;;2.63;;
17330;SDS011;8783;52.448;4.638;2023-10-31T07:58:54;14.73;;;3.35;;
17330;SDS011;8783;52.448;4.638;2023-10-31T08:01:20;7.45;;;2.35;;
17330;SDS011;8783;52.448;4.638;2023-10-31T08:03:47;9.00;;;2.47;;
17330;SDS011;8783;52.448;4.638;2023-10-31T08:06:13;8.60;;;2.08;;
17330;SDS011;8783;52.448;4.638;2023-10-31T08:08:39;8.95;;;2.42;;
17330;SDS011;8783;52.448;4.638;2023-10-31T08:11:08;8.70;;;2.30;;
17330;SDS011;8783;52.448;4.638;2023-10-31T08:13:36;6.78;;;2.00;;
17330;SDS011;8783;52.448;4.638;2023-10-31T08:16:02;4.40;;;1.90;;
17330;SDS011;8783;52.448;4.638;2023-10-31T08:18:32;6.38;;;2.00;;
17330;SDS011;8783;52.448;4.638;2023-10-31T08:20:58;5.80;;;1.80;;
17330;SDS011;8783;52.448;4.638;2023-10-31T08:23:24;6.28;;;2.03;;
17330;SDS011;8783;52.448;4.638;2023-10-31T08:25:50;7.03;;;1.95;;
17330;SDS011;8783;52.448;4.638;2023-10-31T08:28:16;6.28;;;1.92;;
17330;SDS011;8783;52.448;4.638;2023-10-31T08:30:42;6.88;;;1.67;;
17330;SDS011;8783;52.448;4.638;2023-10-31T08:33:08;6.53;;;1.63;;
17330;SDS011;8783;52.448;4.638;2023-10-31T08:35:33;2.92;;;1.20;;
17330;SDS011;8783;52.448;4.638;2023-10-31T08:37:59;4.25;;;1.17;;
17330;SDS011;8783;52.448;4.638;2023-10-31T08:40:25;3.53;;;1.30;;
17330;SDS011;8783;52.448;4.638;2023-10-31T08:42:50;7.68;;;1.55;;
17330;SDS011;8783;52.448;4.638;2023-10-31T08:45:16;3.38;;;1.20;;
17330;SDS011;8783;52.448;4.638;2023-10-31T08:47:42;4.57;;;1.30;;
17330;SDS011;8783;52.448;4.638;2023-10-31T08:50:07;2.50;;;1.20;;
17330;SDS011;8783;52.448;4.638;2023-10-31T08:52:36;3.85;;;1.30;;
17330;SDS011;8783;52.448;4.638;2023-10-31T08:55:02;3.08;;;1.17;;
17330;SDS011;8783;52.448;4.638;2023-10-31T08:57:28;3.83;;;1.35;;
17330;SDS011;8783;52.448;4.638;2023-10-31T08:59:54;2.60;;;1.27;;
17330;SDS011;8783;52.448;4.638;2023-10-31T09:02:20;4.53;;;1.10;;
17330;SDS011;8783;52.448;4.638;2023-10-31T09:04:46;2.78;;;0.88;;
17330;SDS011;8783;52.448;4.638;2023-10-31T09:07:11;6.00;;;1.20;;
17330;SDS011;8783;52.448;4.638;2023-10-31T09:09:37;2.03;;;0.70;;
17330;SDS011;8783;52.448;4.638;2023-10-31T09:12:02;1.60;;;0.77;;
17330;SDS011;8783;52.448;4.638;2023-10-31T09:14:28;1.70;;;0.80;;
17330;SDS011;8783;52.448;4.638;2023-10-31T09:16:54;4.65;;;0.95;;
17330;SDS011;8783;52.448;4.638;2023-10-31T09:19:20;2.58;;;0.93;;
17330;SDS011;8783;52.448;4.638;2023-10-31T09:21:45;5.05;;;1.27;;
17330;SDS011;8783;52.448;4.638;2023-10-31T09:24:11;4.22;;;1.40;;
17330;SDS011;8783;52.448;4.638;2023-10-31T09:26:37;4.07;;;1.63;;
17330;SDS011;8783;52.448;4.638;2023-10-31T09:29:06;4.97;;;2.08;;
17330;SDS011;8783;52.448;4.638;2023-10-31T09:31:32;4.68;;;1.80;;
17330;SDS011;8783;52.448;4.638;2023-10-31T09:33:57;4.57;;;1.83;;
17330;SDS011;8783;52.448;4.638;2023-10-31T09:36:23;6.10;;;1.85;;
17330;SDS011;8783;52.448;4.638;2023-10-31T09:38:48;4.47;;;1.70;;
17330;SDS011;8783;52.448;4.638;2023-10-31T09:41:14;2.30;;;1.13;;
17330;SDS011;8783;52.448;4.638;2023-10-31T09:43:40;3.60;;;1.48;;
17330;SDS011;8783;52.448;4.638;2023-10-31T09:46:06;2.58;;;0.98;;
17330;SDS011;8783;52.448;4.638;2023-10-31T09:48:34;3.50;;;1.10;;
17330;SDS011;8783;52.448;4.638;2023-10-31T09:51:00;2.78;;;1.10;;
17330;SDS011;8783;52.448;4.638;2023-10-31T09:53:27;4.22;;;1.10;;
17330;SDS011;8783;52.448;4.638;2023-10-31T09:55:54;2.13;;;0.70;;
17330;SDS011;8783;52.448;4.638;2023-10-31T09:58:22;1.50;;;0.70;;
17330;SDS011;8783;52.448;4.638;2023-10-31T10:00:47;2.53;;;1.00;;
17330;SDS011;8783;52.448;4.638;2023-10-31T10:03:13;3.05;;;1.05;;
17330;SDS011;8783;52.448;4.638;2023-10-31T10:05:39;2.72;;;0.75;;
17330;SDS011;8783;52.448;4.638;2023-10-31T10:08:09;3.50;;;0.98;;
17330;SDS011;8783;52.448;4.638;2023-10-31T10:10:35;3.45;;;0.90;;
17330;SDS011;8783;52.448;4.638;2023-10-31T10:13:02;3.45;;;0.95;;
17330;SDS011;8783;52.448;4.638;2023-10-31T10:15:28;1.48;;;0.65;;
17330;SDS011;8783;52.448;4.638;2023-10-31T10:17:54;2.40;;;0.70;;
17330;SDS011;8783;52.448;4.638;2023-10-31T10:20:20;3.50;;;1.00;;
17330;SDS011;8783;52.448;4.638;2023-10-31T10:22:45;1.50;;;0.63;;
17330;SDS011;8783;52.448;4.638;2023-10-31T10:25:15;0.68;;;0.50;;
17330;SDS011;8783;52.448;4.638;2023-10-31T10:27:43;4.43;;;0.77;;
17330;SDS011;8783;52.448;4.638;2023-10-31T10:30:09;2.90;;;0.77;;
17330;SDS011;8783;52.448;4.638;2023-10-31T10:32:36;1.88;;;0.50;;
17330;SDS011;8783;52.448;4.638;2023-10-31T10:35:01;2.78;;;0.47;;
17330;SDS011;8783;52.448;4.638;2023-10-31T10:37:27;1.85;;;0.60;;
17330;SDS011;8783;52.448;4.638;2023-10-31T10:39:55;2.55;;;0.68;;
17330;SDS011;8783;52.448;4.638;2023-10-31T10:42:31;2.00;;;0.50;;
17330;SDS011;8783;52.448;4.638;2023-10-31T10:45:04;1.48;;;0.50;;
17330;SDS011;8783;52.448;4.638;2023-10-31T10:47:33;3.30;;;0.50;;
17330;SDS011;8783;52.448;4.638;2023-10-31T10:50:03;1.55;;;0.45;;
17330;SDS011;8783;52.448;4.638;2023-10-31T10:52:54;2.55;;;0.60;;
17330;SDS011;8783;52.448;4.638;2023-10-31T10:55:33;3.00;;;0.60;;
17330;SDS011;8783;52.448;4.638;2023-10-31T10:58:05;1.80;;;0.50;;
17330;SDS011;8783;52.448;4.638;2023-10-31T11:00:37;1.05;;;0.60;;
17330;SDS011;8783;52.448;4.638;2023-10-31T11:03:05;2.67;;;0.70;;
17330;SDS011;8783;52.448;4.638;2023-10-31T11:05:32;2.80;;;0.70;;
17330;SDS011;8783;52.448;4.638;2023-10-31T11:08:00;4.15;;;0.80;;
17330;SDS011;8783;52.448;4.638;2023-10-31T11:10:27;3.17;;;0.80;;
17330;SDS011;8783;52.448;4.638;2023-10-31T11:12:54;2.03;;;0.75;;
17330;SDS011;8783;52.448;4.638;2023-10-31T11:15:21;3.30;;;0.85;;
17330;SDS011;8783;52.448;4.638;2023-10-31T11:17:48;1.88;;;0.80;;
17330;SDS011;8783;52.448;4.638;2023-10-31T11:20:15;2.35;;;0.82;;
17330;SDS011;8783;52.448;4.638;2023-10-31T11:22:45;2.70;;;0.70;;
17330;SDS011;8783;52.448;4.638;2023-10-31T11:25:23;3.38;;;0.85;;
17330;SDS011;8783;52.448;4.638;2023-10-31T11:27:52;2.53;;;0.88;;
17330;SDS011;8783;52.448;4.638;2023-10-31T11:30:27;4.93;;;0.85;;
17330;SDS011;8783;52.448;4.638;2023-10-31T11:32:54;3.58;;;0.90;;
17330;SDS011;8783;52.448;4.638;2023-10-31T11:35:21;2.80;;;0.85;;
17330;SDS011;8783;52.448;4.638;2023-10-31T11:37:48;1.45;;;0.77;;
17330;SDS011;8783;52.448;4.638;2023-10-31T11:40:21;3.58;;;1.10;;
17330;SDS011;8783;52.448;4.638;2023-10-31T11:42:48;4.35;;;0.98;;
17330;SDS011;8783;52.448;4.638;2023-10-31T11:48:05;6.18;;;1.40;;
17330;SDS011;8783;52.448;4.638;2023-10-31T11:50:31;4.53;;;1.30;;
17330;SDS011;8783;52.448;4.638;2023-10-31T11:52:58;4.95;;;1.17;;
17330;SDS011;8783;52.448;4.638;2023-10-31T11:55:29;5.65;;;1.17;;
17330;SDS011;8783;52.448;4.638;2023-10-31T12:00:46;5.47;;;1.10;;
17330;SDS011;8783;52.448;4.638;2023-10-31T12:03:15;2.75;;;1.02;;
17330;SDS011;8783;52.448;4.638;2023-10-31T12:05:50;7.93;;;1.05;;
17330;SDS011;8783;52.448;4.638;2023-10-31T12:08:27;3.60;;;1.15;;
17330;SDS011;8783;52.448;4.638;2023-10-31T12:10:53;4.45;;;1.00;;
17330;SDS011;8783;52.448;4.638;2023-10-31T12:13:58;3.33;;;1.13;;
17330;SDS011;8783;52.448;4.638;2023-10-31T12:16:31;3.90;;;1.13;;
17330;SDS011;8783;52.448;4.638;2023-10-31T12:19:02;4.65;;;1.50;;
17330;SDS011;8783;52.448;4.638;2023-10-31T12:21:38;3.72;;;1.20;;
17330;SDS011;8783;52.448;4.638;2023-10-31T12:24:21;6.18;;;1.63;;
17330;SDS011;8783;52.448;4.638;2023-10-31T12:26:47;4.05;;;1.48;;
17330;SDS011;8783;52.448;4.638;2023-10-31T12:29:14;6.65;;;1.90;;
17330;SDS011;8783;52.448;4.638;2023-10-31T12:31:45;4.63;;;1.73;;
17330;SDS011;8783;52.448;4.638;2023-10-31T12:34:16;5.03;;;1.38;;
17330;SDS011;8783;52.448;4.638;2023-10-31T12:36:42;3.53;;;1.42;;
17330;SDS011;8783;52.448;4.638;2023-10-31T12:39:10;4.05;;;1.67;;
17330;SDS011;8783;52.448;4.638;2023-10-31T12:41:37;5.47;;;1.40;;
17330;SDS011;8783;52.448;4.638;2023-10-31T12:44:03;3.83;;;1.45;;
17330;SDS011;8783;52.448;4.638;2023-10-31T12:46:30;4.03;;;1.40;;
17330;SDS011;8783;52.448;4.638;2023-10-31T12:48:57;3.83;;;1.35;;
17330;SDS011;8783;52.448;4.638;2023-10-31T12:51:23;3.55;;;1.20;;
17330;SDS011;8783;52.448;4.638;2023-10-31T12:53:49;2.55;;;0.93;;
17330;SDS011;8783;52.448;4.638;2023-10-31T12:56:40;2.67;;;1.05;;
17330;SDS011;8783;52.448;4.638;2023-10-31T12:59:08;2.03;;;0.88;;
17330;SDS011;8783;52.448;4.638;2023-10-31T13:01:41;2.75;;;0.82;;
17330;SDS011;8783;52.448;4.638;2023-10-31T13:04:08;4.10;;;1.13;;
17330;SDS011;8783;52.448;4.638;2023-10-31T13:06:34;2.30;;;1.00;;
17330;SDS011;8783;52.448;4.638;2023-10-31T13:09:00;3.22;;;0.73;;
17330;SDS011;8783;52.448;4.638;2023-10-31T13:11:30;3.50;;;1.13;;
17330;SDS011;8783;52.448;4.638;2023-10-31T13:13:56;2.13;;;0.93;;
17330;SDS011;8783;52.448;4.638;2023-10-31T13:16:22;2.75;;;1.00;;
17330;SDS011;8783;52.448;4.638;2023-10-31T13:18:47;2.50;;;0.73;;
17330;SDS011;8783;52.448;4.638;2023-10-31T13:21:14;3.97;;;0.93;;
17330;SDS011;8783;52.448;4.638;2023-10-31T13:23:41;3.78;;;1.08;;
17330;SDS011;8783;52.448;4.638;2023-10-31T13:26:10;2.40;;;0.90;;
17330;SDS011;8783;52.448;4.638;2023-10-31T13:28:39;2.30;;;0.77;;
17330;SDS011;8783;52.448;4.638;2023-10-31T13:31:07;3.17;;;0.90;;
17330;SDS011;8783;52.448;4.638;2023-10-31T13:33:33;1.55;;;0.80;;
17330;SDS011;8783;52.448;4.638;2023-10-31T13:35:59;2.17;;;1.10;;
17330;SDS011;8783;52.448;4.638;2023-10-31T13:38:25;2.50;;;0.90;;
17330;SDS011;8783;52.448;4.638;2023-10-31T13:40:51;4.68;;;1.15;;
17330;SDS011;8783;52.448;4.638;2023-10-31T13:43:16;4.22;;;1.00;;
17330;SDS011;8783;52.448;4.638;2023-10-31T13:45:42;2.35;;;0.88;;
17330;SDS011;8783;52.448;4.638;2023-10-31T13:48:07;1.63;;;0.80;;
17330;SDS011;8783;52.448;4.638;2023-10-31T13:50:34;1.88;;;0.80;;
17330;SDS011;8783;52.448;4.638;2023-10-31T13:53:00;1.75;;;0.80;;
17330;SDS011;8783;52.448;4.638;2023-10-31T13:55:28;2.35;;;0.82;;
17330;SDS011;8783;52.448;4.638;2023-10-31T13:57:53;1.88;;;0.88;;
17330;SDS011;8783;52.448;4.638;2023-10-31T14:00:19;1.90;;;0.80;;
17330;SDS011;8783;52.448;4.638;2023-10-31T14:02:45;2.03;;;0.77;;
17330;SDS011;8783;52.448;4.638;2023-10-31T14:05:10;2.67;;;0.70;;
17330;SDS011;8783;52.448;4.638;2023-10-31T14:07:36;2.40;;;0.93;;
17330;SDS011;8783;52.448;4.638;2023-10-31T14:10:04;1.92;;;0.88;;
17330;SDS011;8783;52.448;4.638;2023-10-31T14:12:30;2.33;;;0.98;;
17330;SDS011;8783;52.448;4.638;2023-10-31T14:14:56;2.90;;;1.00;;
17330;SDS011;8783;52.448;4.638;2023-10-31T14:17:22;2.55;;;1.00;;
17330;SDS011;8783;52.448;4.638;2023-10-31T14:19:51;1.80;;;0.80;;
17330;SDS011;8783;52.448;4.638;2023-10-31T14:22:16;2.88;;;0.90;;
17330;SDS011;8783;52.448;4.638;2023-10-31T14:24:42;2.08;;;0.80;;
17330;SDS011;8783;52.448;4.638;2023-10-31T14:27:08;2.80;;;0.88;;
17330;SDS011;8783;52.448;4.638;2023-10-31T14:29:33;2.90;;;1.13;;
17330;SDS011;8783;52.448;4.638;2023-10-31T14:32:06;5.32;;;1.20;;
17330;SDS011;8783;52.448;4.638;2023-10-31T14:34:33;4.07;;;1.00;;
17330;SDS011;8783;52.448;4.638;2023-10-31T14:36:58;2.80;;;1.02;;
17330;SDS011;8783;52.448;4.638;2023-10-31T14:39:24;3.22;;;1.00;;
17330;SDS011;8783;52.448;4.638;2023-10-31T14:41:50;6.53;;;1.42;;
17330;SDS011;8783;52.448;4.638;2023-10-31T14:44:18;7.03;;;1.30;;
17330;SDS011;8783;52.448;4.638;2023-10-31T14:46:45;2.20;;;0.82;;
17330;SDS011;8783;52.448;4.638;2023-10-31T14:49:13;3.88;;;1.40;;
17330;SDS011;8783;52.448;4.638;2023-10-31T14:51:39;3.50;;;1.20;;
17330;SDS011;8783;52.448;4.638;2023-10-31T14:54:06;5.13;;;1.40;;
17330;SDS011;8783;52.448;4.638;2023-10-31T14:56:32;4.32;;;1.10;;
17330;SDS011;8783;52.448;4.638;2023-10-31T14:59:00;4.07;;;1.40;;
17330;SDS011;8783;52.448;4.638;2023-10-31T15:01:27;5.03;;;1.20;;
17330;SDS011;8783;52.448;4.638;2023-10-31T15:03:53;6.50;;;1.42;;